Time;durP1;ratioP1;P1;durP2;ratioP2;P2;SDS_P1;SDS_P2;PMS_P1;PMS_P2;Temp;Humidity;BMP_temperature;BMP_pressure;BME280_temperature;BME280_humidity;BME280_pressure;Samples;Min_cycle;Max_cycle;Signal;HPM_P1;HPM_P2
2022/02/04 00:01:20;;;;;;;13.15;7.33;;;;;;;0.01;54.12;101577.87;1790431;80;25858;-59
2022/02/04 00:22:06;;;;;;;11.83;6.12;;;;;;;-0.71;54.93;101598.48;1780548;80;26445;-58
2022/02/04 00:24:14;;;;;;;18.32;7.90;;;;;;;-0.79;55.18;101595.19;1779078;80;25821;-59
2022/02/04 00:26:49;;;;;;;14.70;7.10;;;;;;;-0.83;55.12;101601.45;1787314;79;25790;-57
2022/02/04 00:29:18;;;;;;;14.75;7.20;;;;;;;-0.92;55.47;101597.74;1777064;80;27172;-58
2022/02/04 00:31:44;;;;;;;13.08;6.62;;;;;;;-1.01;55.51;101595.77;1777365;80;25727;-58
2022/02/04 00:34:12;;;;;;;12.88;6.42;;;;;;;-1.03;55.69;101596.72;1777764;80;25659;-57
2022/02/04 00:36:47;;;;;;;12.45;7.08;;;;;;;-1.12;56.02;101588.14;1778199;80;25902;-57
2022/02/04 00:39:13;;;;;;;12.68;7.15;;;;;;;-1.18;55.97;101586.11;1777786;80;25998;-58
2022/02/04 00:41:40;;;;;;;17.57;7.45;;;;;;;-1.21;56.07;101587.53;1767010;80;27459;-58
2022/02/04 00:44:15;;;;;;;14.83;7.95;;;;;;;-1.21;56.27;101586.20;1752728;81;25798;-57
2022/02/04 00:46:51;;;;;;;14.70;7.90;;;;;;;-1.19;56.48;101592.30;1751425;81;25838;-58
2022/02/04 00:49:14;;;;;;;13.43;7.08;;;;;;;-1.28;56.61;101594.27;1757080;80;26457;-58
2022/02/04 00:51:48;;;;;;;12.85;7.05;;;;;;;-1.38;57.14;101593.23;1777617;80;25512;-57
2022/02/04 00:56:45;;;;;;;12.93;7.10;;;;;;;-1.43;57.18;101590.70;1778677;80;25809;-58
2022/02/04 01:27:15;;;;;;;18.57;8.03;;;;;;;-0.69;56.71;101572.00;1747630;82;25780;-58
2022/02/04 01:29:56;;;;;;;11.80;6.65;;;;;;;-0.65;56.65;101573.66;1747685;82;25779;-59
2022/02/04 01:32:11;;;;;;;15.58;7.80;;;;;;;-0.68;56.40;101563.17;1747244;82;25482;-59
2022/02/04 01:34:38;;;;;;;16.97;7.37;;;;;;;-0.69;56.36;101578.61;1747695;82;27467;-58
2022/02/04 01:37:05;;;;;;;20.62;7.70;;;;;;;-0.69;56.48;101578.17;1747762;82;26172;-58
2022/02/04 01:39:31;;;;;;;13.48;6.65;;;;;;;-0.70;56.62;101575.11;1747774;82;26039;-59
2022/02/04 01:42:00;;;;;;;11.83;7.20;;;;;;;-0.66;56.97;101579.38;1765747;80;27844;-58
2022/02/04 01:44:28;;;;;;;15.65;7.67;;;;;;;-0.59;57.11;101574.80;1778629;80;25708;-58
2022/02/04 01:46:56;;;;;;;12.30;7.15;;;;;;;-0.53;57.13;101579.04;1779010;80;27420;-58
2022/02/04 01:49:24;;;;;;;10.98;6.17;;;;;;;-0.52;57.13;101574.16;1778531;80;25644;-58
2022/02/04 01:51:51;;;;;;;13.72;7.37;;;;;;;-0.53;56.68;101576.39;1778600;80;25817;-58
2022/02/04 01:54:19;;;;;;;18.23;7.45;;;;;;;-0.53;56.78;101575.08;1778714;80;25807;-58
2022/02/04 01:56:47;;;;;;;14.30;7.92;;;;;;;-0.53;56.80;101571.96;1778974;80;25863;-57
2022/02/04 01:59:14;;;;;;;14.55;7.17;;;;;;;-0.54;56.92;101573.34;1778683;80;27465;-58
2022/02/04 02:01:42;;;;;;;13.40;6.87;;;;;;;-0.55;56.98;101567.64;1778812;80;25751;-57
2022/02/04 02:04:12;;;;;;;10.80;6.53;;;;;;;-0.58;57.01;101569.07;1778795;80;25470;-58
2022/02/04 02:06:53;;;;;;;12.07;7.15;;;;;;;-0.61;56.97;101573.97;1778829;80;25772;-57
2022/02/04 02:09:23;;;;;;;11.03;6.83;;;;;;;-0.61;57.14;101573.11;1778489;80;25818;-57
2022/02/04 02:11:53;;;;;;;12.82;7.00;;;;;;;-0.63;57.24;101578.45;1778391;80;27480;-58
2022/02/04 02:14:20;;;;;;;13.62;6.67;;;;;;;-0.62;57.27;101580.16;1778420;80;25780;-58
2022/02/04 02:43:50;;;;;;;13.10;6.65;;;;;;;-0.52;57.28;101575.02;1768704;81;25803;-58
2022/02/04 02:46:20;;;;;;;15.05;7.22;;;;;;;-0.49;57.26;101575.38;1764503;81;25840;-59
2022/02/04 02:49:03;;;;;;;17.87;8.65;;;;;;;-0.44;57.29;101576.13;1788829;79;25802;-58
2022/02/04 02:51:36;;;;;;;12.20;7.08;;;;;;;-0.43;57.37;101579.63;1783658;80;27544;-58
2022/02/04 02:54:05;;;;;;;11.65;6.70;;;;;;;-0.46;57.05;101571.33;1785512;80;25883;-58
2022/02/04 02:59:09;;;;;;;14.53;7.08;;;;;;;-0.46;57.20;101583.23;1787355;78;25849;-58
2022/02/04 03:01:34;;;;;;;15.58;7.72;;;;;;;-0.48;57.18;101583.28;1785479;80;25789;-58
2022/02/04 03:04:06;;;;;;;11.15;6.92;;;;;;;-0.50;57.29;101581.61;1756567;81;27521;-58
2022/02/04 03:06:31;;;;;;;15.55;6.87;;;;;;;-0.52;57.11;101576.81;1781466;80;25730;-58
2022/02/04 03:08:58;;;;;;;16.57;6.83;;;;;;;-0.49;57.17;101579.34;1782366;80;25719;-60
2022/02/04 03:11:25;;;;;;;19.52;7.12;;;;;;;-0.50;57.23;101586.42;1752695;81;26617;-58
2022/02/04 03:13:52;;;;;;;12.30;6.72;;;;;;;-0.52;57.11;101582.09;1756544;81;26117;-58
2022/02/04 03:16:19;;;;;;;11.28;7.60;;;;;;;-0.50;57.23;101584.25;1754528;81;28513;-58
2022/02/04 03:18:50;;;;;;;13.88;7.75;;;;;;;-0.52;57.20;101581.63;1756205;81;25568;-58
2022/02/04 03:21:27;;;;;;;16.60;7.55;;;;;;;-0.51;57.22;101578.55;1781716;80;25752;-58
2022/02/04 03:23:55;;;;;;;10.70;6.12;;;;;;;-0.51;57.15;101584.69;1754096;80;26696;-58
2022/02/04 03:26:28;;;;;;;12.98;6.62;;;;;;;-0.47;57.37;101573.56;1785695;80;26043;-58
2022/02/04 03:28:48;;;;;;;11.05;7.08;;;;;;;-0.42;57.40;101571.67;1778563;79;28205;-58
2022/02/04 03:31:15;;;;;;;11.80;6.30;;;;;;;-0.41;57.53;101567.23;1777596;80;25738;-58
2022/02/04 03:33:44;;;;;;;13.50;6.60;;;;;;;-0.40;57.63;101581.72;1777674;80;26408;-58
2022/02/04 03:36:10;;;;;;;12.78;7.45;;;;;;;-0.43;57.75;101584.47;1777844;80;25814;-59
2022/02/04 03:38:38;;;;;;;16.40;8.08;;;;;;;-0.46;57.71;101588.98;1777683;80;25770;-58
2022/02/04 03:41:07;;;;;;;19.60;7.03;;;;;;;-0.51;57.70;101583.36;1770067;80;27453;-59
2022/02/04 03:43:34;;;;;;;10.03;6.47;;;;;;;-0.50;58.08;101589.53;1736303;82;27312;-58
2022/02/04 03:46:01;;;;;;;13.10;7.40;;;;;;;-0.55;57.82;101587.46;1736486;82;25779;-58
2022/02/04 03:48:28;;;;;;;10.68;6.42;;;;;;;-0.55;57.97;101583.06;1737504;80;25793;-58
2022/02/04 03:50:54;;;;;;;11.08;6.25;;;;;;;-0.55;58.15;101580.86;1783682;80;25894;-58
2022/02/04 03:53:21;;;;;;;13.38;6.87;;;;;;;-0.54;58.19;101587.88;1783456;80;27494;-58
2022/02/04 03:55:48;;;;;;;14.13;7.70;;;;;;;-0.58;58.06;101589.74;1783600;79;25796;-58
2022/02/04 03:58:15;;;;;;;15.55;6.95;;;;;;;-0.60;58.09;101580.14;1783953;80;25806;-58
2022/02/04 04:00:43;;;;;;;12.80;6.90;;;;;;;-0.56;58.13;101572.51;1783540;80;26500;-59
2022/02/04 04:03:10;;;;;;;13.62;7.08;;;;;;;-0.53;58.05;101575.08;1782433;80;25735;-59
2022/02/04 04:05:42;;;;;;;13.45;7.40;;;;;;;-0.55;57.93;101575.13;1781531;80;27486;-58
2022/02/04 04:08:05;;;;;;;10.53;6.95;;;;;;;-0.54;58.19;101572.87;1780894;79;25722;-58
2022/02/04 04:10:38;;;;;;;14.63;7.72;;;;;;;-0.58;58.18;101584.93;1781663;80;25814;-58
2022/02/04 04:13:02;;;;;;;20.48;8.68;;;;;;;-0.60;58.43;101573.06;1780856;80;25788;-58
2022/02/04 04:15:29;;;;;;;11.68;7.35;;;;;;;-0.60;58.39;101574.84;1781809;80;25628;-58
2022/02/04 04:17:56;;;;;;;12.00;7.47;;;;;;;-0.60;58.46;101577.02;1781912;80;27434;-59
2022/02/04 04:20:25;;;;;;;15.38;8.88;;;;;;;-0.59;58.44;101582.72;1781553;80;25529;-58
2022/02/04 04:22:54;;;;;;;17.77;7.40;;;;;;;-0.59;58.34;101575.27;1782077;80;25649;-58
2022/02/04 04:25:21;;;;;;;13.53;7.00;;;;;;;-0.60;58.31;101564.28;1769661;80;25841;-58
2022/02/04 04:27:52;;;;;;;13.95;7.70;;;;;;;-0.59;58.29;101576.11;1765582;80;25751;-58
2022/02/04 04:30:23;;;;;;;14.18;7.30;;;;;;;-0.65;58.14;101578.48;1765324;81;27538;-58
2022/02/04 04:32:53;;;;;;;12.13;7.53;;;;;;;-0.65;58.34;101574.52;1765588;81;25866;-58
2022/02/04 04:35:24;;;;;;;18.20;7.67;;;;;;;-0.62;58.41;101574.88;1765504;80;25817;-58
2022/02/04 04:37:59;;;;;;;12.55;6.45;;;;;;;-0.58;58.45;101568.60;1765675;81;25739;-58
2022/02/04 04:43:47;;;;;;;13.28;7.50;;;;;;;-0.51;58.42;101566.19;1811457;79;28158;-58
2022/02/04 05:29:15;;;;;;;15.18;8.70;;;;;;;-0.43;58.92;101563.77;1810935;77;25725;-59
2022/02/04 05:31:43;;;;;;;15.53;8.33;;;;;;;-0.41;58.99;101568.11;1808910;79;25761;-59
2022/02/04 05:34:14;;;;;;;15.30;7.90;;;;;;;-0.44;58.85;101570.84;1808954;79;25794;-59
2022/02/04 05:36:44;;;;;;;18.20;8.58;;;;;;;-0.48;58.65;101567.86;1809025;79;27480;-59
2022/02/04 05:39:11;;;;;;;17.52;7.42;;;;;;;-0.46;58.78;101570.02;1808628;79;25813;-59
2022/02/04 05:41:42;;;;;;;18.27;8.20;;;;;;;-0.40;58.85;101565.00;1808949;77;25806;-59
2022/02/04 05:44:10;;;;;;;15.30;9.13;;;;;;;-0.37;58.74;101569.73;1808769;79;26641;-59
2022/02/04 05:46:48;;;;;;;20.00;7.97;;;;;;;-0.35;58.60;101567.92;1808748;78;26144;-59
2022/02/04 05:49:05;;;;;;;19.87;8.55;;;;;;;-0.31;58.57;101570.02;1801566;77;28199;-59
2022/02/04 05:54:36;;;;;;;16.93;8.35;;;;;;;-0.22;58.50;101564.45;1789814;80;25786;-59
2022/02/04 05:57:00;;;;;;;16.37;8.65;;;;;;;-0.19;58.40;101563.48;1786859;79;25804;-58
2022/02/04 06:02:19;;;;;;;16.90;8.98;;;;;;;-0.12;58.23;101561.05;1788491;80;27540;-58
2022/02/04 06:04:50;;;;;;;18.85;9.23;;;;;;;-0.11;58.13;101558.81;1781645;80;26017;-58
2022/02/04 06:07:19;;;;;;;19.37;9.40;;;;;;;-0.07;58.10;101561.78;1781268;80;25821;-57
2022/02/04 06:23:07;;;;;;;46.23;17.20;;;;;;;0.26;57.51;101542.23;1783819;80;25789;-58
2022/02/04 06:25:34;;;;;;;42.95;18.62;;;;;;;0.29;57.55;101542.98;1783794;80;26485;-57
2022/02/04 06:28:01;;;;;;;85.15;22.17;;;;;;;0.34;57.59;101543.28;1783727;80;28297;-58
2022/02/04 06:30:28;;;;;;;50.28;19.82;;;;;;;0.38;57.55;101545.77;1781647;79;25871;-58
2022/02/04 06:32:55;;;;;;;51.18;19.12;;;;;;;0.34;57.33;101545.48;1765907;79;25497;-58
2022/02/04 06:35:22;;;;;;;47.23;19.40;;;;;;;0.36;57.27;101545.42;1781963;80;26449;-58
2022/02/04 06:37:49;;;;;;;53.15;21.48;;;;;;;0.41;57.26;101542.15;1765785;79;25679;-61
2022/02/04 06:40:16;;;;;;;57.58;22.93;;;;;;;0.42;57.10;101546.53;1781644;79;27492;-58
2022/02/04 06:42:43;;;;;;;47.15;23.52;;;;;;;0.40;56.97;101550.56;1767746;81;25740;-59
2022/02/04 06:45:10;;;;;;;46.95;18.95;;;;;;;0.42;56.96;101540.80;1768350;80;25714;-58
2022/02/04 06:47:37;;;;;;;37.30;18.15;;;;;;;0.43;56.93;101538.56;1767861;79;26249;-58
2022/02/04 06:50:05;;;;;;;36.17;16.77;;;;;;;0.43;57.00;101543.85;1767246;81;26027;-59
2022/02/04 06:52:32;;;;;;;34.15;16.93;;;;;;;0.45;56.96;101538.50;1766303;81;27583;-58
2022/02/04 06:54:59;;;;;;;39.33;15.88;;;;;;;0.46;57.03;101539.76;1766397;81;25731;-58
2022/02/04 06:57:26;;;;;;;34.67;18.52;;;;;;;0.51;57.11;101540.08;1766404;81;25902;-57
2022/02/04 06:59:53;;;;;;;60.78;20.97;;;;;;;0.50;57.03;101533.05;1766544;81;26599;-58
2022/02/04 07:02:22;;;;;;;65.72;25.92;;;;;;;0.52;57.20;101532.54;1766955;81;25918;-58
2022/02/04 07:04:49;;;;;;;106.70;35.15;;;;;;;0.58;57.25;101534.97;1768165;81;28172;-58
2022/02/04 07:07:17;;;;;;;71.42;29.67;;;;;;;0.62;57.25;101527.34;1768239;81;25727;-57
2022/02/04 07:09:53;;;;;;;67.17;28.57;;;;;;;0.67;57.35;101531.15;1767868;81;25770;-57
2022/02/04 07:19:56;;;;;;;68.70;29.37;;;;;;;0.83;57.08;101530.12;1767848;81;25767;-57
2022/02/04 07:22:30;;;;;;;54.42;27.00;;;;;;;0.87;56.81;101527.31;1767969;81;25728;-58
2022/02/04 07:25:01;;;;;;;60.50;27.93;;;;;;;0.89;56.66;101527.28;1768469;80;25820;-57
2022/02/04 07:27:28;;;;;;;50.83;23.15;;;;;;;0.92;56.68;101532.00;1767812;81;25803;-58
2022/02/04 07:29:56;;;;;;;52.78;21.68;;;;;;;0.98;56.70;101526.95;1767982;79;27456;-58
2022/02/04 07:32:44;;;;;;;45.00;20.05;;;;;;;1.03;56.34;101529.44;1767924;81;25725;-57
2022/02/04 07:43:14;;;;;;;39.27;19.45;;;;;;;1.13;55.91;101528.63;1789758;80;27487;-59
2022/02/04 07:45:41;;;;;;;38.95;18.55;;;;;;;1.18;55.99;101524.00;1755056;81;25846;-58
2022/02/04 07:48:08;;;;;;;39.18;18.73;;;;;;;1.22;55.98;101530.45;1762113;81;25723;-58
2022/02/04 07:50:35;;;;;;;35.15;16.65;;;;;;;1.25;56.08;101527.70;1773806;80;27983;-58
2022/02/04 07:53:03;;;;;;;30.97;16.67;;;;;;;1.33;56.09;101527.42;1784384;80;25698;-58
2022/02/04 08:00:16;;;;;;;46.08;17.27;;;;;;;1.58;55.88;101525.16;1773602;79;25811;-59
2022/02/04 08:02:48;;;;;;;35.40;17.23;;;;;;;1.63;55.28;101527.15;1767006;80;25819;-59
2022/02/04 08:05:17;;;;;;;38.60;18.80;;;;;;;1.65;55.41;101524.46;1811947;77;26608;-59
2022/02/04 08:08:14;;;;;;;44.48;18.90;;;;;;;1.69;55.15;101525.61;1810249;78;25730;-59
2022/02/04 08:10:39;;;;;;;41.75;20.52;;;;;;;1.74;55.25;101516.58;1778029;80;27499;-58
2022/02/04 08:15:47;;;;;;;54.73;21.57;;;;;;;1.89;55.20;101517.29;1780630;80;25786;-57
2022/02/04 08:29:10;;;;;;;52.25;25.80;;;;;;;2.28;54.61;101519.25;1782193;80;25749;-59
2022/02/04 08:31:41;;;;;;;65.70;30.90;;;;;;;2.40;54.60;101518.34;1779214;80;25806;-58
2022/02/04 08:50:16;;;;;;;37.13;15.78;;;;;;;3.52;51.42;101484.52;1810053;78;27514;-58
2022/02/04 08:52:36;;;;;;;37.85;15.93;;;;;;;3.59;49.32;101490.42;1810549;79;25991;-58
2022/02/04 08:55:02;;;;;;;39.95;15.25;;;;;;;3.59;50.50;101487.27;1812507;79;25726;-58
2022/02/04 08:57:38;;;;;;;33.90;14.58;;;;;;;3.65;49.09;101484.80;1814626;79;26570;-58
2022/02/04 09:00:05;;;;;;;40.83;14.25;;;;;;;3.58;49.00;101484.25;1811413;79;25693;-58
2022/02/04 09:02:39;;;;;;;37.35;12.95;;;;;;;3.66;49.40;101481.68;1812098;79;27486;-58
2022/02/04 09:05:12;;;;;;;32.17;13.98;;;;;;;3.82;48.14;101479.11;1813888;78;26426;-58
2022/02/04 09:10:14;;;;;;;45.55;14.60;;;;;;;4.20;48.81;101466.58;1814263;78;25749;-59
2022/02/04 09:23:27;;;;;;;16.45;7.95;;;;;;;7.31;39.60;101433.33;1831012;78;25799;-58
2022/02/04 09:25:55;;;;;;;24.72;8.15;;;;;;;8.11;39.57;101431.20;1814874;78;25789;-58
2022/02/04 09:28:23;;;;;;;17.75;7.70;;;;;;;8.71;38.66;101432.97;1814260;78;28151;-58
2022/02/04 09:30:51;;;;;;;21.07;8.30;;;;;;;9.39;38.59;101418.71;1812736;78;25729;-58
2022/02/04 09:33:18;;;;;;;15.68;7.00;;;;;;;10.02;37.56;101421.22;1811987;78;26393;-58
2022/02/04 09:35:45;;;;;;;14.20;7.78;;;;;;;10.45;35.38;101414.88;1812028;79;26026;-58
2022/02/04 09:38:12;;;;;;;16.35;6.45;;;;;;;10.95;35.46;101406.47;1811986;79;25722;-58
2022/02/04 09:40:41;;;;;;;14.10;6.83;;;;;;;11.38;34.28;101400.31;1811034;79;27541;-58
2022/02/04 09:43:08;;;;;;;13.45;6.08;;;;;;;11.42;32.57;101397.72;1775317;80;25822;-59
2022/02/04 09:45:37;;;;;;;14.30;7.08;;;;;;;11.33;31.89;101393.09;1789625;80;25770;-58
2022/02/04 09:48:10;;;;;;;11.80;6.80;;;;;;;11.72;32.94;101387.20;1789372;80;26427;-58
2022/02/04 09:50:42;;;;;;;15.95;7.55;;;;;;;12.32;33.01;101379.96;1789622;79;25806;-58
2022/02/04 10:18:06;;;;;;;12.03;6.50;;;;;;;14.27;26.98;101349.38;1817721;78;25725;-59
2022/02/04 10:20:35;;;;;;;13.43;6.83;;;;;;;14.37;28.33;101344.31;1817581;78;27564;-59
2022/02/04 10:23:03;;;;;;;11.63;5.85;;;;;;;14.73;26.55;101347.69;1817550;78;25829;-59
2022/02/04 10:25:37;;;;;;;12.50;6.25;;;;;;;14.94;28.10;101336.59;1798311;78;25773;-58
2022/02/04 10:28:08;;;;;;;15.60;6.78;;;;;;;15.25;26.80;101336.77;1828075;78;27187;-59
2022/02/04 10:30:35;;;;;;;18.27;6.85;;;;;;;15.26;27.09;101336.63;1821502;78;25757;-59
2022/02/04 10:33:02;;;;;;;19.60;6.75;;;;;;;15.58;25.08;101331.17;1819021;78;27457;-59
2022/02/04 10:35:36;;;;;;;16.50;7.40;;;;;;;15.39;25.66;101315.92;1818928;78;26354;-59
2022/02/04 10:38:18;;;;;;;;;;;;;;;15.41;26.05;101315.27;1821989;78;25701;-59
2022/02/04 10:40:55;;;;;;;14.03;6.90;;;;;;;15.72;24.81;101305.88;1821498;78;25721;-59
2022/02/04 10:43:50;;;;;;;13.70;5.97;;;;;;;15.85;26.63;101305.50;1785796;80;25726;-59
2022/02/04 10:49:04;;;;;;;12.60;6.55;;;;;;;16.39;24.55;101298.05;1814206;78;25930;-59
2022/02/04 10:55:02;;;;;;;15.63;6.70;;;;;;;17.24;24.74;101292.75;1819092;78;25825;-58
2022/02/04 11:04:44;;;;;;;10.15;5.20;;;;;;;18.40;23.18;101276.69;1786448;80;25644;-59
2022/02/04 11:07:19;;;;;;;8.35;5.42;;;;;;;18.57;22.78;101280.70;1816758;78;26242;-59
2022/02/04 11:33:38;;;;;;;13.55;6.03;;;;;;;13.85;25.78;101264.07;1755638;80;25791;-59
2022/02/04 11:55:03;;;;;;;26.82;7.17;;;;;;;10.54;29.45;101263.50;1792759;80;28389;-59
2022/02/04 12:01:05;;;;;;;13.68;7.53;;;;;;;9.77;30.30;101258.30;1792655;79;25693;-58
2022/02/04 12:03:38;;;;;;;19.50;6.72;;;;;;;9.32;30.93;101256.36;1792659;80;25670;-58
2022/02/04 12:06:06;;;;;;;13.80;6.87;;;;;;;9.18;31.16;101256.05;1792820;80;25845;-58
2022/02/04 12:08:33;;;;;;;9.83;6.25;;;;;;;9.15;31.16;101248.72;1792999;80;28255;-58
2022/02/04 12:11:03;;;;;;;13.58;6.97;;;;;;;9.11;31.58;101248.56;1792572;80;25759;-58
2022/02/04 12:13:31;;;;;;;25.75;8.58;;;;;;;8.95;31.61;101251.05;1792737;80;25730;-58
2022/02/04 12:16:06;;;;;;;17.12;8.03;;;;;;;8.84;32.06;101248.30;1792886;80;25799;-58
2022/02/04 12:18:43;;;;;;;13.25;7.00;;;;;;;8.76;32.21;101251.57;1793015;80;26486;-59
2022/02/04 12:21:12;;;;;;;14.78;6.45;;;;;;;8.54;32.74;101244.23;1792710;80;28214;-58
2022/02/04 12:23:43;;;;;;;22.45;7.70;;;;;;;8.52;33.11;101238.95;1792507;79;25831;-58
2022/02/04 12:26:22;;;;;;;21.50;9.00;;;;;;;8.61;33.39;101245.00;1803192;78;25640;-58
2022/02/04 12:29:12;;;;;;;33.18;8.35;;;;;;;8.60;33.09;101243.31;1801656;78;25691;-58
2022/02/04 12:31:42;;;;;;;20.20;8.48;;;;;;;8.64;32.98;101237.70;1802904;78;25482;-59
2022/02/04 12:34:17;;;;;;;19.32;7.17;;;;;;;8.57;33.33;101243.98;1802946;79;27459;-59
2022/02/04 12:36:52;;;;;;;16.82;7.37;;;;;;;8.65;33.21;101248.81;1802777;79;25892;-58
2022/02/04 12:39:33;;;;;;;17.75;6.95;;;;;;;8.68;33.40;101244.57;1803071;78;25615;-58
2022/02/04 12:42:05;;;;;;;14.05;6.87;;;;;;;8.64;33.35;101250.64;1802953;78;26646;-58
2022/02/04 12:44:42;;;;;;;17.77;8.10;;;;;;;8.71;33.25;101256.39;1803090;79;25832;-58
2022/02/04 12:47:19;;;;;;;12.53;6.67;;;;;;;8.80;33.48;101248.17;1802982;79;27409;-58
2022/02/04 12:49:53;;;;;;;12.80;6.40;;;;;;;8.83;33.38;101247.95;1812066;78;25670;-59
2022/02/04 12:52:28;;;;;;;18.20;7.60;;;;;;;8.79;33.32;101243.27;1818674;78;25627;-59
2022/02/04 12:55:09;;;;;;;13.65;6.83;;;;;;;8.74;33.26;101248.13;1818801;78;25672;-59
2022/02/04 12:57:40;;;;;;;15.35;7.03;;;;;;;8.69;33.47;101239.58;1818579;78;25844;-58
2022/02/04 13:11:08;;;;;;;;;;;;;;;9.59;32.88;101241.79;1821493;78;25710;-58
2022/02/04 13:13:45;;;;;;;16.55;7.30;;;;;;;9.80;32.16;101236.58;1818786;78;27527;-58
2022/02/04 13:16:22;;;;;;;17.40;7.37;;;;;;;9.88;32.02;101237.33;1817962;78;25750;-58
2022/02/04 13:18:49;;;;;;;13.48;7.28;;;;;;;9.77;32.36;101237.30;1819042;78;25706;-59
2022/02/04 13:21:18;;;;;;;15.63;6.97;;;;;;;9.61;32.46;101231.79;1818898;78;26431;-59
2022/02/04 13:23:52;;;;;;;16.23;7.37;;;;;;;9.51;32.43;101224.91;1819875;78;25758;-59
2022/02/04 13:26:24;;;;;;;14.50;7.83;;;;;;;9.50;32.51;101227.22;1832712;78;28141;-59
2022/02/04 13:28:58;;;;;;;17.23;6.78;;;;;;;9.44;32.68;101223.67;1832852;78;25837;-59
2022/02/04 13:31:25;;;;;;;;;;;;;;;9.36;33.07;101216.70;1799922;78;25923;-59
2022/02/04 13:33:56;;;;;;;16.17;7.53;;;;;;;9.28;33.23;101213.25;1822546;78;25765;-58
2022/02/04 13:39:35;;;;;;;19.12;7.58;;;;;;;9.13;33.24;101209.05;1820535;78;27515;-59
2022/02/04 13:42:24;;;;;;;13.85;7.05;;;;;;;9.04;33.53;101202.56;1813227;78;25818;-58
2022/02/04 13:44:55;;;;;;;16.93;7.65;;;;;;;9.07;33.63;101202.31;1807158;79;25726;-59
2022/02/04 13:50:09;;;;;;;;;;;;;;;8.88;33.92;101202.34;1771647;79;25832;-58
2022/02/04 13:52:53;;;;;;;17.10;7.10;;;;;;;8.83;34.16;101199.17;1786851;80;27878;-58
2022/02/04 13:57:48;;;;;;;16.52;7.78;;;;;;;8.66;34.24;101205.77;1788166;80;25457;-58
2022/02/04 14:00:23;;;;;;;14.85;6.47;;;;;;;8.60;34.39;101195.04;1787037;80;26527;-60
2022/02/04 14:02:53;;;;;;;17.35;7.03;;;;;;;8.60;34.66;101195.50;1788246;80;25773;-59
2022/02/04 14:05:40;;;;;;;24.60;6.85;;;;;;;8.67;34.41;101193.23;1788055;80;28141;-58
2022/02/04 14:08:12;;;;;;;13.93;7.03;;;;;;;8.71;34.33;101190.67;1786741;79;25753;-59
2022/02/04 14:10:56;;;;;;;16.07;7.50;;;;;;;8.76;34.60;101192.05;1788159;80;25738;-59
2022/02/04 14:13:25;;;;;;;23.40;8.28;;;;;;;8.76;34.45;101185.34;1788501;79;26420;-58
2022/02/04 14:15:58;;;;;;;18.87;8.98;;;;;;;8.76;34.46;101189.87;1788063;80;25786;-59
2022/02/04 14:18:28;;;;;;;20.02;7.65;;;;;;;8.69;34.81;101192.14;1788382;80;27442;-59
2022/02/04 14:20:57;;;;;;;29.48;8.35;;;;;;;8.66;34.87;101198.22;1788204;80;25618;-59
2022/02/04 14:23:24;;;;;;;20.68;8.98;;;;;;;8.62;34.88;101197.59;1788205;80;25725;-58
2022/02/04 14:26:09;;;;;;;32.90;9.15;;;;;;;8.57;34.96;101190.36;1789799;80;25780;-58
2022/02/04 14:31:18;;;;;;;25.00;9.83;;;;;;;8.44;35.00;101203.31;1790820;78;28164;-58
2022/02/04 14:36:38;;;;;;;23.25;11.15;;;;;;;8.26;35.21;101198.78;1793005;79;25722;-58
2022/02/04 14:58:41;;;;;;;39.40;13.80;;;;;;;7.32;37.30;101184.80;1793983;79;25648;-59
2022/02/04 15:00:20;;;;;;;41.15;14.68;;;;;;;7.16;37.25;101200.19;1794079;80;25923;-58
2022/02/04 15:02:46;;;;;;;44.35;14.55;;;;;;;7.09;37.41;101198.86;1791871;79;25787;-58
2022/02/04 15:05:12;;;;;;;44.45;13.83;;;;;;;7.00;37.87;101201.69;1792885;79;26517;-59
2022/02/04 15:07:39;;;;;;;41.80;17.98;;;;;;;6.93;37.88;101204.40;1793833;79;25735;-58
2022/02/04 15:10:13;;;;;;;53.68;17.45;;;;;;;6.88;37.88;101206.04;1793826;80;27456;-59
2022/02/04 15:12:35;;;;;;;52.85;17.02;;;;;;;6.80;38.04;101206.53;1793094;79;25848;-58
2022/02/04 15:15:02;;;;;;;49.50;16.73;;;;;;;6.74;38.35;101205.12;1769964;79;25778;-58
2022/02/04 15:17:30;;;;;;;47.67;16.93;;;;;;;6.70;38.48;101204.08;1794257;80;25444;-58
2022/02/04 15:19:58;;;;;;;42.58;15.13;;;;;;;6.66;38.76;101202.59;1794121;79;25763;-58
2022/02/04 15:22:26;;;;;;;42.43;16.05;;;;;;;6.59;38.84;101195.44;1794063;79;27893;-59
2022/02/04 15:24:58;;;;;;;53.50;15.88;;;;;;;6.56;39.08;101199.63;1794170;79;25723;-59
2022/02/04 15:27:22;;;;;;;50.20;16.97;;;;;;;6.51;39.08;101193.25;1793388;79;25743;-59
2022/02/04 15:29:52;;;;;;;73.60;19.20;;;;;;;6.49;39.13;101200.99;1793988;79;26503;-59
2022/02/04 15:32:20;;;;;;;68.30;17.67;;;;;;;6.41;39.45;101197.01;1793981;78;25715;-59
2022/02/04 15:34:47;;;;;;;56.65;16.52;;;;;;;6.37;39.62;101201.31;1793906;80;27466;-59
2022/02/04 15:37:13;;;;;;;43.40;16.15;;;;;;;6.35;39.72;101208.10;1794081;80;25837;-59
2022/02/04 15:39:40;;;;;;;120.85;24.98;;;;;;;6.31;39.98;101204.39;1793959;80;25481;-59
2022/02/04 15:42:12;;;;;;;80.00;24.82;;;;;;;6.26;40.29;101210.02;1794538;78;25755;-59
2022/02/04 15:44:42;;;;;;;93.03;29.82;;;;;;;6.20;40.29;101206.37;1795129;79;25802;-59
2022/02/04 15:47:23;;;;;;;69.22;25.95;;;;;;;6.13;40.47;101204.59;1794887;78;27693;-59
2022/02/04 15:50:05;;;;;;;52.73;23.38;;;;;;;6.01;40.67;101210.70;1792921;79;25825;-59
2022/02/04 15:52:43;;;;;;;;;;;;;;;5.92;40.58;101206.28;1795795;79;25786;-59
2022/02/04 16:05:43;;;;;;;63.55;28.32;;;;;;;5.51;41.64;101206.14;1793740;79;25854;-58
2022/02/04 16:08:14;;;;;;;58.55;27.35;;;;;;;5.47;42.32;101210.32;1793773;80;26195;-58
2022/02/04 16:11:08;;;;;;;70.57;27.27;;;;;;;5.38;42.19;101200.69;1793823;80;25631;-59
2022/02/04 16:13:25;;;;;;;75.03;27.98;;;;;;;5.33;42.15;101207.63;1791305;80;28190;-59
2022/02/04 16:15:55;;;;;;;73.92;29.35;;;;;;;5.29;42.36;101205.63;1791866;79;25912;-59
2022/02/04 16:18:17;;;;;;;71.90;27.70;;;;;;;5.27;42.37;101214.19;1788764;79;25761;-58
2022/02/04 16:20:55;;;;;;;64.37;26.17;;;;;;;5.28;42.43;101203.91;1792840;79;25809;-58
2022/02/04 16:23:22;;;;;;;59.38;23.38;;;;;;;5.28;42.59;101201.23;1791167;79;25714;-58
2022/02/04 16:30:53;;;;;;;58.23;29.15;;;;;;;5.22;42.92;101208.73;1850663;77;25761;-58
2022/02/04 16:33:20;;;;;;;69.80;31.02;;;;;;;5.21;42.91;101207.89;1851599;77;26411;-58
2022/02/04 16:35:47;;;;;;;71.80;27.35;;;;;;;5.20;42.97;101202.17;1845066;77;25664;-58
2022/02/04 16:38:18;;;;;;;51.75;25.92;;;;;;;5.21;42.78;101213.23;1844983;77;28277;-58
2022/02/04 16:40:46;;;;;;;58.73;24.92;;;;;;;5.20;42.81;101211.51;1842757;77;25693;-59
2022/02/04 16:43:16;;;;;;;57.88;24.52;;;;;;;5.16;43.00;101211.28;1814723;77;25610;-58
2022/02/04 16:45:43;;;;;;;52.23;23.35;;;;;;;5.13;43.16;101212.33;1814448;79;25790;-58
2022/02/04 16:48:10;;;;;;;46.48;20.72;;;;;;;5.12;43.20;101215.10;1794994;78;25711;-59
2022/02/04 16:50:38;;;;;;;40.05;19.27;;;;;;;5.08;43.27;101215.76;1825326;78;28250;-59
2022/02/04 16:53:05;;;;;;;43.15;18.98;;;;;;;5.06;43.21;101215.47;1832777;78;25679;-58
2022/02/04 16:55:32;;;;;;;46.42;18.70;;;;;;;5.05;43.59;101223.08;1834007;78;25694;-59
2022/02/04 16:57:58;;;;;;;48.55;20.72;;;;;;;5.00;43.83;101215.34;1833919;78;25787;-59
2022/02/04 17:00:25;;;;;;;41.70;19.00;;;;;;;4.94;43.71;101212.56;1833920;77;25740;-59
2022/02/04 17:02:58;;;;;;;44.00;20.30;;;;;;;4.93;43.69;101216.66;1834141;78;27527;-58
2022/02/04 17:05:35;;;;;;;48.70;19.75;;;;;;;4.93;43.84;101217.50;1833962;78;25743;-58
2022/02/04 17:07:57;;;;;;;49.73;21.37;;;;;;;4.93;43.62;101209.50;1832252;78;25690;-58
2022/02/04 17:10:30;;;;;;;50.73;20.57;;;;;;;4.91;43.68;101207.39;1833750;77;26336;-59
2022/02/04 17:13:01;;;;;;;63.92;22.15;;;;;;;4.89;43.70;101207.95;1834160;77;25678;-58
2022/02/04 17:15:31;;;;;;;54.10;22.22;;;;;;;4.89;43.78;101201.77;1834352;77;27434;-59
2022/02/04 17:18:00;;;;;;;53.05;24.77;;;;;;;4.88;43.94;101204.93;1833322;78;25679;-58
2022/02/04 17:20:29;;;;;;;58.87;23.05;;;;;;;4.87;44.00;101199.20;1834231;78;25882;-58
2022/02/04 17:22:58;;;;;;;53.85;22.75;;;;;;;4.86;43.98;101202.81;1834509;78;25733;-58